createdAt,value
2018-01-12T00:00:53.505Z,4.40
2018-01-12T00:01:54.741Z,4.40
2018-01-12T00:02:56.313Z,4.40
2018-01-12T00:04:05.182Z,4.30
2018-01-12T00:05:06.455Z,4.20
2018-01-12T00:06:07.713Z,4.20
2018-01-12T00:07:09.693Z,4.00
2018-01-12T00:08:10.961Z,4.00
2018-01-12T00:09:12.213Z,3.90
2018-01-12T00:10:13.469Z,3.90
2018-01-12T00:11:15.445Z,3.90
2018-01-12T00:12:16.697Z,3.90
2018-01-12T00:13:18.233Z,3.90
2018-01-12T00:14:19.485Z,3.90
2018-01-12T00:15:20.741Z,3.90
2018-01-12T00:16:21.993Z,3.90
2018-01-12T00:17:23.957Z,3.90
2018-01-12T00:18:25.967Z,4.00
2018-01-12T00:19:27.225Z,3.90
2018-01-12T00:20:28.469Z,4.00
2018-01-12T00:21:30.465Z,4.10
2018-01-12T00:22:31.761Z,4.10
2018-01-12T00:23:33.850Z,4.20
2018-01-12T00:24:35.089Z,4.20
2018-01-12T00:25:36.373Z,4.20
2018-01-12T00:26:37.640Z,4.20
2018-01-12T00:27:38.889Z,4.20
2018-01-12T00:28:40.157Z,4.20
2018-01-12T00:29:41.381Z,4.20
2018-01-12T00:30:42.621Z,4.20
2018-01-12T00:31:43.913Z,4.20
2018-01-12T00:32:45.137Z,4.20
2018-01-12T00:33:47.147Z,4.10
2018-01-12T00:34:48.385Z,4.10
2018-01-12T00:35:49.641Z,4.10
2018-01-12T00:36:50.857Z,4.10
2018-01-12T00:37:52.162Z,4.10
2018-01-12T00:38:53.473Z,4.10
2018-01-12T00:39:55.503Z,4.20
2018-01-12T00:40:56.809Z,4.10
2018-01-12T00:41:58.064Z,4.10
2018-01-12T00:42:59.337Z,4.10
2018-01-12T00:44:01.361Z,4.10
2018-01-12T00:45:02.662Z,4.10
2018-01-12T00:46:03.953Z,4.10
2018-01-12T00:47:05.954Z,4.10
2018-01-12T00:48:07.989Z,4.10
2018-01-12T00:49:09.592Z,4.10
2018-01-12T00:50:10.848Z,4.10
2018-01-12T00:51:12.875Z,4.10
2018-01-12T00:52:14.165Z,4.10
2018-01-12T00:53:15.437Z,4.10
2018-01-12T00:54:17.009Z,4.00
2018-01-12T00:55:19.029Z,4.10
2018-01-12T00:56:20.305Z,4.10
2018-01-12T00:57:22.327Z,4.10
2018-01-12T00:58:23.605Z,4.10
2018-01-12T00:59:25.221Z,4.10
2018-01-12T01:00:26.459Z,4.10
2018-01-12T01:01:28.445Z,4.20
2018-01-12T01:02:29.701Z,4.10
2018-01-12T01:03:30.946Z,4.20
2018-01-12T01:04:32.529Z,4.20
2018-01-12T01:05:34.529Z,4.20
2018-01-12T01:06:35.777Z,4.20
2018-01-12T01:07:37.037Z,4.20
2018-01-12T01:08:38.309Z,4.20
2018-01-12T01:09:39.856Z,4.20
2018-01-12T01:10:41.111Z,4.30
2018-01-12T01:11:42.365Z,4.20
2018-01-12T01:12:43.617Z,4.20
2018-01-12T01:13:44.853Z,4.20
2018-01-12T01:14:46.391Z,4.20
2018-01-12T01:15:47.657Z,4.20
2018-01-12T01:16:49.667Z,4.20
2018-01-12T01:17:50.925Z,4.20
2018-01-12T01:18:52.181Z,4.20
2018-01-12T01:19:54.533Z,4.20
2018-01-12T01:20:56.516Z,4.20
2018-01-12T01:21:57.807Z,4.20
2018-01-12T01:22:59.061Z,4.10
2018-01-12T01:24:01.059Z,4.10
2018-01-12T01:25:02.613Z,4.10
2018-01-12T01:26:03.847Z,4.10
2018-01-12T01:27:05.085Z,4.10
2018-01-12T01:28:06.342Z,4.00
2018-01-12T01:29:08.366Z,4.00
2018-01-12T01:30:10.053Z,4.00
2018-01-12T01:31:12.045Z,4.00
2018-01-12T01:32:13.297Z,4.00
2018-01-12T01:33:14.564Z,3.90
2018-01-12T01:34:15.824Z,3.90
2018-01-12T01:35:18.173Z,3.90
2018-01-12T01:36:20.162Z,3.80
2018-01-12T01:37:21.414Z,3.80
2018-01-12T01:38:22.665Z,3.80
2018-01-12T01:39:23.917Z,3.80
2018-01-12T01:40:25.473Z,3.80
2018-01-12T01:41:26.717Z,3.80
2018-01-12T01:42:28.719Z,3.80
2018-01-12T01:43:29.968Z,3.70
2018-01-12T01:44:31.220Z,3.80
2018-01-12T01:45:33.585Z,3.80
2018-01-12T01:46:34.815Z,3.80
2018-01-12T01:47:36.077Z,3.80
2018-01-12T01:48:41.201Z,3.80
2018-01-12T01:49:43.205Z,3.80
2018-01-12T01:50:44.736Z,3.80
2018-01-12T01:51:45.988Z,3.90
2018-01-12T01:52:47.229Z,3.90
2018-01-12T01:53:48.477Z,3.80
2018-01-12T01:54:49.721Z,3.80
2018-01-12T01:55:51.265Z,3.80
2018-01-12T01:56:52.500Z,3.90
2018-01-12T01:57:53.769Z,3.90
2018-01-12T01:58:54.993Z,3.90
2018-01-12T01:59:56.245Z,3.90
2018-01-12T02:00:57.792Z,4.00
2018-01-12T02:01:59.065Z,4.00
2018-01-12T02:03:00.325Z,4.00
2018-01-12T02:04:02.328Z,4.00
2018-01-12T02:05:03.581Z,4.00
2018-01-12T02:06:05.103Z,4.00
2018-01-12T02:07:06.357Z,4.00
2018-01-12T02:08:07.609Z,4.00
2018-01-12T02:09:08.889Z,4.00
2018-01-12T02:10:10.125Z,4.00
2018-01-12T02:11:11.671Z,4.00
2018-01-12T02:12:12.969Z,4.00
2018-01-12T02:13:14.209Z,4.00
2018-01-12T02:14:16.192Z,4.00
2018-01-12T02:15:17.441Z,4.00
2018-01-12T02:16:19.033Z,4.00
2018-01-12T02:17:20.286Z,4.10
2018-01-12T02:18:22.277Z,4.10
2018-01-12T02:19:23.555Z,4.10
2018-01-12T02:20:24.809Z,4.10
2018-01-12T02:21:26.793Z,4.00
2018-01-12T02:22:28.033Z,4.00
2018-01-12T02:23:29.287Z,4.10
2018-01-12T02:24:30.581Z,4.10
2018-01-12T02:25:31.847Z,4.10
2018-01-12T02:26:33.393Z,4.10
2018-01-12T02:27:34.669Z,4.00
2018-01-12T02:28:36.672Z,3.90
2018-01-12T02:29:37.932Z,3.90
2018-01-12T02:30:39.176Z,3.90
2018-01-12T02:31:40.711Z,3.90
2018-01-12T02:32:41.957Z,3.90
2018-01-12T02:33:43.221Z,3.90
2018-01-12T02:34:45.217Z,3.90
2018-01-12T02:35:47.213Z,4.00
2018-01-12T02:36:49.509Z,3.90
2018-01-12T02:37:50.770Z,3.90
2018-01-12T02:38:52.033Z,4.00
2018-01-12T02:39:53.289Z,4.00
2018-01-12T02:40:55.285Z,3.90
2018-01-12T02:41:56.805Z,3.90
2018-01-12T02:42:58.042Z,3.90
2018-01-12T02:43:59.289Z,3.90
2018-01-12T02:45:00.553Z,3.90
2018-01-12T02:46:01.813Z,3.90
2018-01-12T02:47:04.099Z,3.90
2018-01-12T02:48:05.345Z,3.90
2018-01-12T02:49:06.621Z,3.90
2018-01-12T02:50:07.872Z,3.90
2018-01-12T02:51:09.129Z,3.90
2018-01-12T02:52:11.127Z,3.90
2018-01-12T02:53:12.373Z,3.80
2018-01-12T02:54:13.641Z,3.80
2018-01-12T02:55:22.453Z,3.70
2018-01-12T02:56:24.462Z,3.60
2018-01-12T02:57:25.998Z,3.60
2018-01-12T02:58:27.249Z,3.60
2018-01-12T02:59:28.493Z,3.50
2018-01-12T03:00:29.748Z,3.50
2018-01-12T03:01:31.747Z,3.40
2018-01-12T03:02:33.285Z,3.40
2018-01-12T03:03:34.549Z,3.40
2018-01-12T03:04:35.817Z,3.50
2018-01-12T03:05:37.806Z,3.50
2018-01-12T03:06:39.057Z,3.50
2018-01-12T03:07:40.623Z,3.50
2018-01-12T03:08:41.868Z,3.50
2018-01-12T03:09:43.149Z,3.50
2018-01-12T03:10:44.397Z,3.50
2018-01-12T03:11:45.669Z,3.50
2018-01-12T03:12:47.205Z,3.50
2018-01-12T03:13:49.214Z,3.60
2018-01-12T03:14:50.466Z,3.50
2018-01-12T03:15:51.713Z,3.60
2018-01-12T03:16:53.089Z,3.50
2018-01-12T03:17:55.387Z,3.50
2018-01-12T03:19:03.721Z,3.50
2018-01-12T03:20:04.980Z,3.50
2018-01-12T03:21:06.225Z,3.40
2018-01-12T03:22:08.221Z,3.30
2018-01-12T03:23:09.753Z,3.30
2018-01-12T03:24:11.017Z,3.30
2018-01-12T03:25:12.257Z,3.40
2018-01-12T03:26:13.509Z,3.40
2018-01-12T03:27:14.759Z,3.30
2018-01-12T03:28:16.297Z,3.40
2018-01-12T03:29:18.303Z,3.40
2018-01-12T03:30:19.540Z,3.40
2018-01-12T03:31:20.798Z,3.40
2018-01-12T03:32:22.047Z,3.40
2018-01-12T03:33:23.577Z,3.40
2018-01-12T03:34:24.847Z,3.40
2018-01-12T03:35:26.835Z,3.50
2018-01-12T03:36:28.077Z,3.50
2018-01-12T03:37:29.327Z,3.50
2018-01-12T03:38:30.937Z,3.60
2018-01-12T03:39:32.241Z,3.60
2018-01-12T03:40:33.491Z,3.60
2018-01-12T03:41:35.481Z,3.70
2018-01-12T03:42:36.721Z,3.70
2018-01-12T03:43:38.266Z,3.70
2018-01-12T03:44:39.516Z,3.70
2018-01-12T03:45:40.749Z,3.70
2018-01-12T03:46:41.977Z,3.70
2018-01-12T03:47:43.225Z,3.70
2018-01-12T03:48:44.793Z,3.70
2018-01-12T03:49:46.755Z,3.70
2018-01-12T03:50:48.737Z,3.70
2018-01-12T03:51:50.005Z,3.70
2018-01-12T03:52:51.251Z,3.70
2018-01-12T03:53:52.805Z,3.60
2018-01-12T03:54:54.045Z,3.50
2018-01-12T03:55:56.031Z,3.50
2018-01-12T03:56:57.267Z,3.50
2018-01-12T03:57:58.534Z,3.40
2018-01-12T03:59:00.835Z,3.40
2018-01-12T04:00:02.873Z,3.40
2018-01-12T04:01:04.116Z,3.40
2018-01-12T04:02:06.139Z,3.40
2018-01-12T04:03:07.393Z,3.40
2018-01-12T04:04:08.943Z,3.40
2018-01-12T04:05:10.185Z,3.40
2018-01-12T04:06:12.187Z,3.30
2018-01-12T04:07:13.436Z,3.30
2018-01-12T04:08:14.714Z,3.30
2018-01-12T04:09:16.971Z,3.20
2018-01-12T04:10:18.962Z,3.20
2018-01-12T04:11:20.205Z,3.20
2018-01-12T04:12:21.473Z,3.10
2018-01-12T04:13:22.725Z,3.10
2018-01-12T04:14:24.740Z,3.20
2018-01-12T04:15:25.995Z,3.10
2018-01-12T04:16:27.255Z,3.20
2018-01-12T04:17:29.387Z,3.20
2018-01-12T04:18:30.627Z,3.20
2018-01-12T04:19:32.222Z,3.20
2018-01-12T04:20:34.905Z,3.20
2018-01-12T04:21:36.177Z,3.20
2018-01-12T04:22:37.428Z,3.20
2018-01-12T04:23:39.425Z,3.20
2018-01-12T04:24:40.977Z,3.20
2018-01-12T04:25:42.207Z,3.20
2018-01-12T04:26:43.444Z,3.10
2018-01-12T04:27:44.696Z,3.10
2018-01-12T04:28:45.969Z,3.20
2018-01-12T04:29:48.317Z,3.20
2018-01-12T04:30:49.611Z,3.20
2018-01-12T04:31:50.888Z,3.20
2018-01-12T04:32:52.141Z,3.20
2018-01-12T04:33:54.130Z,3.20
2018-01-12T04:34:55.655Z,3.20
2018-01-12T04:35:56.897Z,3.30
2018-01-12T04:36:58.295Z,3.30
2018-01-12T04:38:00.276Z,3.30
2018-01-12T04:39:01.512Z,3.30
2018-01-12T04:40:03.060Z,3.30
2018-01-12T04:41:04.310Z,3.30
2018-01-12T04:42:05.551Z,3.30
2018-01-12T04:43:06.794Z,3.40
2018-01-12T04:44:08.066Z,3.40
2018-01-12T04:45:10.362Z,3.30
2018-01-12T04:46:11.628Z,3.30
2018-01-12T04:47:12.871Z,3.30
2018-01-12T04:48:14.136Z,3.30
2018-01-12T04:49:16.124Z,3.30
2018-01-12T04:50:17.662Z,3.30
2018-01-12T04:51:18.931Z,3.30
2018-01-12T04:52:20.865Z,3.30
2018-01-12T04:53:22.106Z,3.30
2018-01-12T04:54:23.368Z,3.30
2018-01-12T04:55:24.902Z,3.30
2018-01-12T04:56:26.154Z,3.30
2018-01-12T04:57:28.166Z,3.20
2018-01-12T04:58:29.418Z,3.20
2018-01-12T04:59:30.690Z,3.20
2018-01-12T05:00:33.051Z,3.20
2018-01-12T05:01:35.054Z,3.30
2018-01-12T05:02:36.324Z,3.20
2018-01-12T05:03:37.610Z,3.30
2018-01-12T05:04:38.870Z,3.30
2018-01-12T05:05:40.174Z,3.30
2018-01-12T05:06:41.414Z,3.20
2018-01-12T05:07:42.666Z,3.20
2018-01-12T05:08:43.967Z,3.20
2018-01-12T05:09:45.214Z,3.10
2018-01-12T05:10:46.766Z,3.10
2018-01-12T05:11:48.034Z,3.00
2018-01-12T05:12:49.282Z,3.00
2018-01-12T05:13:50.542Z,3.00
2018-01-12T05:14:52.534Z,3.10
2018-01-12T05:15:53.800Z,3.10
2018-01-12T05:16:55.808Z,3.10
2018-01-12T05:17:57.114Z,3.00
2018-01-12T05:18:59.142Z,3.00
2018-01-12T05:20:00.395Z,3.00
2018-01-12T05:21:02.768Z,3.00
2018-01-12T05:22:04.782Z,3.00
2018-01-12T05:23:06.050Z,3.00
2018-01-12T05:24:08.048Z,3.00
2018-01-12T05:25:09.310Z,3.00
2018-01-12T05:26:10.576Z,3.00
2018-01-12T05:27:12.562Z,2.90
2018-01-12T05:28:13.800Z,2.90
2018-01-12T05:29:15.054Z,2.90
2018-01-12T05:30:17.045Z,2.90
2018-01-12T05:31:18.315Z,2.90
2018-01-12T05:32:19.563Z,2.90
2018-01-12T05:33:20.796Z,2.90
2018-01-12T05:34:22.036Z,3.00
2018-01-12T05:35:23.300Z,3.00
2018-01-12T05:36:24.573Z,3.00
2018-01-12T05:37:26.556Z,3.10
2018-01-12T05:38:27.821Z,3.10
2018-01-12T05:39:29.094Z,3.00
2018-01-12T05:40:31.137Z,3.10
2018-01-12T05:41:33.497Z,3.20
2018-01-12T05:42:34.748Z,3.20
2018-01-12T05:43:36.752Z,3.20
2018-01-12T05:44:38.736Z,3.20
2018-01-12T05:45:39.996Z,3.20
2018-01-12T05:46:41.276Z,3.20
2018-01-12T05:47:42.530Z,3.20
2018-01-12T05:48:43.776Z,3.10
2018-01-12T05:49:45.024Z,3.00
2018-01-12T05:50:47.006Z,2.80
2018-01-12T05:51:48.543Z,2.80
2018-01-12T05:52:49.781Z,2.80
2018-01-12T05:53:51.029Z,2.80
2018-01-12T05:54:52.268Z,2.80
2018-01-12T05:55:53.510Z,2.80
2018-01-12T05:56:55.111Z,2.90
2018-01-12T05:57:57.140Z,2.80
2018-01-12T05:58:58.375Z,2.80
2018-01-12T05:59:59.596Z,2.80
2018-01-12T06:01:13.064Z,2.80
2018-01-12T06:02:26.610Z,2.80
2018-01-12T06:03:40.010Z,2.70
2018-01-12T06:04:53.541Z,2.70
2018-01-12T06:06:06.958Z,2.70
2018-01-12T06:07:08.192Z,2.70
2018-01-12T06:08:09.450Z,2.80
2018-01-12T06:09:10.686Z,2.70
2018-01-12T06:10:11.936Z,2.60
2018-01-12T06:11:13.208Z,2.60
2018-01-12T06:12:15.197Z,2.50
2018-01-12T06:13:16.492Z,2.50
2018-01-12T06:14:18.476Z,2.60
2018-01-12T06:15:19.726Z,2.50
2018-01-12T06:16:20.966Z,2.50
2018-01-12T06:17:22.236Z,2.60
2018-01-12T06:18:23.545Z,2.60
2018-01-12T06:19:24.806Z,2.60
2018-01-12T06:20:26.043Z,2.60
2018-01-12T06:21:27.324Z,2.60
2018-01-12T06:22:28.572Z,2.60
2018-01-12T06:23:29.830Z,2.50
2018-01-12T06:24:31.055Z,2.50
2018-01-12T06:25:32.312Z,2.50
2018-01-12T06:26:33.584Z,2.50
2018-01-12T06:27:35.580Z,2.60
2018-01-12T06:28:36.862Z,2.60
2018-01-12T06:29:38.120Z,2.60
2018-01-12T06:30:39.371Z,2.70
2018-01-12T06:31:40.596Z,2.70
2018-01-12T06:32:41.840Z,2.60
2018-01-12T06:33:43.372Z,2.60
2018-01-12T06:34:44.617Z,2.70
2018-01-12T06:35:45.876Z,2.70
2018-01-12T06:36:47.300Z,2.70
2018-01-12T06:37:48.589Z,2.70
2018-01-12T06:38:50.888Z,2.70
2018-01-12T06:39:52.173Z,2.70
2018-01-12T06:40:53.437Z,2.70
2018-01-12T06:41:54.672Z,2.70
2018-01-12T06:42:55.930Z,2.80
2018-01-12T06:43:57.504Z,2.80
2018-01-12T06:44:58.756Z,2.80
2018-01-12T06:46:00.013Z,2.70
2018-01-12T06:47:02.002Z,2.70
2018-01-12T06:48:03.252Z,2.70
2018-01-12T06:49:04.546Z,2.70
2018-01-12T06:50:05.808Z,2.70
2018-01-12T06:51:07.044Z,2.70
2018-01-12T06:52:08.328Z,2.70
2018-01-12T06:53:09.578Z,2.60
2018-01-12T06:54:11.564Z,2.60
2018-01-12T06:55:12.833Z,2.50
2018-01-12T06:56:14.078Z,2.50
2018-01-12T06:57:15.342Z,2.60
2018-01-12T06:58:17.332Z,2.70
2018-01-12T06:59:18.592Z,2.70
2018-01-12T07:00:20.662Z,2.70
2018-01-12T07:01:21.949Z,2.80
2018-01-12T07:02:23.215Z,2.80
2018-01-12T07:03:24.474Z,2.90
2018-01-12T07:04:26.692Z,2.90
2018-01-12T07:05:27.934Z,2.90
2018-01-12T07:06:29.920Z,2.90
2018-01-12T07:07:31.158Z,2.90
2018-01-12T07:08:33.141Z,2.90
2018-01-12T07:09:34.696Z,2.80
2018-01-12T07:10:35.946Z,2.90
2018-01-12T07:11:37.219Z,2.90
2018-01-12T07:12:38.481Z,2.90
2018-01-12T07:13:39.728Z,2.90
2018-01-12T07:14:41.030Z,2.90
2018-01-12T07:15:43.034Z,2.90
2018-01-12T07:16:44.282Z,2.90
2018-01-12T07:17:45.516Z,3.00
2018-01-12T07:18:46.819Z,3.00
2018-01-12T07:19:48.066Z,3.00
2018-01-12T07:21:13.218Z,3.00
2018-01-12T07:22:25.676Z,3.10
2018-01-12T07:23:50.895Z,3.10
2018-01-12T07:24:52.364Z,3.10
2018-01-12T07:25:54.368Z,3.00
2018-01-12T07:26:55.601Z,3.00
2018-01-12T07:27:56.848Z,2.90
2018-01-12T07:28:58.089Z,2.90
2018-01-12T07:29:59.334Z,2.90
2018-01-12T07:31:00.597Z,2.90
2018-01-12T07:32:01.852Z,2.90
2018-01-12T07:33:03.115Z,2.90
2018-01-12T07:34:04.391Z,2.90
2018-01-12T07:35:06.398Z,2.90
2018-01-12T07:36:07.661Z,2.90
2018-01-12T07:37:08.908Z,2.90
2018-01-12T07:38:10.154Z,3.00
2018-01-12T07:39:12.120Z,3.00
2018-01-12T07:40:13.650Z,3.00
2018-01-12T07:41:15.632Z,2.90
2018-01-12T07:42:16.879Z,2.90
2018-01-12T07:43:18.122Z,2.90
2018-01-12T07:44:19.364Z,3.00
2018-01-12T07:45:20.902Z,3.00
2018-01-12T07:46:22.154Z,3.00
2018-01-12T07:47:23.404Z,3.00
2018-01-12T07:48:24.680Z,3.00
2018-01-12T07:49:25.929Z,2.90
2018-01-12T07:50:27.198Z,2.90
2018-01-12T07:51:28.458Z,2.80
2018-01-12T07:52:30.476Z,2.70
2018-01-12T07:53:31.712Z,2.70
2018-01-12T07:54:32.936Z,2.70
2018-01-12T07:55:34.209Z,2.70
2018-01-12T07:56:36.200Z,2.70
2018-01-12T07:57:37.472Z,2.70
2018-01-12T07:58:38.707Z,2.80
2018-01-12T07:59:40.052Z,2.80
2018-01-12T08:00:47.266Z,2.90
2018-01-12T08:01:55.368Z,2.90
2018-01-12T08:03:02.738Z,2.90
2018-01-12T08:04:04.723Z,3.00
2018-01-12T08:05:05.976Z,3.00
2018-01-12T08:06:07.262Z,3.00
2018-01-12T08:07:09.242Z,3.10
2018-01-12T08:08:10.484Z,3.10
2018-01-12T08:09:11.739Z,3.10
2018-01-12T08:10:12.996Z,3.10
2018-01-12T08:11:14.557Z,3.10
2018-01-12T08:12:16.537Z,3.10
2018-01-12T08:13:17.775Z,3.10
2018-01-12T08:14:19.030Z,3.10
2018-01-12T08:15:20.288Z,3.10
2018-01-12T08:16:21.560Z,3.10
2018-01-12T08:17:23.541Z,3.00
2018-01-12T08:18:24.769Z,3.00
2018-01-12T08:19:26.038Z,3.00
2018-01-12T08:20:27.288Z,2.90
2018-01-12T08:21:28.604Z,2.90
2018-01-12T08:22:29.853Z,2.80
2018-01-12T08:23:31.106Z,2.80
2018-01-12T08:24:32.376Z,2.70
2018-01-12T08:25:34.377Z,2.80
2018-01-12T08:26:35.654Z,2.80
2018-01-12T08:27:36.905Z,2.80
2018-01-12T08:28:38.164Z,2.80
2018-01-12T08:29:39.451Z,2.90
2018-01-12T08:30:41.446Z,2.90
2018-01-12T08:31:49.624Z,2.90
2018-01-12T08:32:50.890Z,2.90
2018-01-12T08:33:52.151Z,2.90
2018-01-12T08:34:53.392Z,2.90
2018-01-12T08:35:54.644Z,3.00
2018-01-12T08:36:56.660Z,3.10
2018-01-12T08:37:57.909Z,3.10
2018-01-12T08:38:59.161Z,3.20
2018-01-12T08:40:01.181Z,3.30
2018-01-12T08:41:02.434Z,3.20
2018-01-12T08:42:03.692Z,3.30
2018-01-12T08:43:05.690Z,3.30
2018-01-12T08:44:06.934Z,3.30
2018-01-12T08:45:08.912Z,3.30
2018-01-12T08:46:10.158Z,3.20
2018-01-12T08:47:12.170Z,3.30
2018-01-12T08:48:13.425Z,3.30
2018-01-12T08:49:14.741Z,3.30
2018-01-12T08:50:15.953Z,3.30
2018-01-12T08:51:17.193Z,3.30
2018-01-12T08:52:18.485Z,3.30
2018-01-12T08:53:20.513Z,3.30
2018-01-12T08:54:21.768Z,3.30
2018-01-12T08:55:23.039Z,3.40
2018-01-12T08:56:24.276Z,3.40
2018-01-12T08:57:25.890Z,3.50
2018-01-12T08:58:27.882Z,3.60
2018-01-12T08:59:29.138Z,3.60
2018-01-12T09:00:30.390Z,3.60
2018-01-12T09:01:31.650Z,3.60
2018-01-12T09:02:33.646Z,3.60
2018-01-12T09:03:34.904Z,3.60
2018-01-12T09:04:36.148Z,3.60
2018-01-12T09:05:37.410Z,3.70
2018-01-12T09:06:38.671Z,3.80
2018-01-12T09:07:39.936Z,3.80
2018-01-12T09:08:41.166Z,3.90
2018-01-12T09:09:42.403Z,3.90
2018-01-12T09:10:43.647Z,3.90
2018-01-12T09:11:44.899Z,4.00
2018-01-12T09:12:46.156Z,4.00
2018-01-12T09:13:55.088Z,4.10
2018-01-12T09:15:08.416Z,4.10
2018-01-12T09:16:09.704Z,4.10
2018-01-12T09:17:10.990Z,4.10
2018-01-12T09:18:24.632Z,4.10
2018-01-12T09:19:39.661Z,4.10
2018-01-12T09:20:40.971Z,4.20
2018-01-12T09:21:42.238Z,4.20
2018-01-12T09:22:44.508Z,4.10
2018-01-12T09:23:53.696Z,4.10
2018-01-12T09:24:55.667Z,3.90
2018-01-12T09:25:56.923Z,3.80
2018-01-12T09:26:58.168Z,3.70
2018-01-12T09:28:00.164Z,3.60
2018-01-12T09:29:01.438Z,3.60
2018-01-12T09:30:02.688Z,3.60
2018-01-12T09:31:03.976Z,3.50
2018-01-12T09:32:13.811Z,3.40
2018-01-12T09:33:15.831Z,3.40
2018-01-12T09:34:29.567Z,3.30
2018-01-12T09:35:30.836Z,3.30
2018-01-12T09:36:32.816Z,3.30
2018-01-12T09:37:38.791Z,3.30
2018-01-12T09:38:52.299Z,3.30
2018-01-12T09:40:05.954Z,3.50
2018-01-12T09:41:07.187Z,3.50
2018-01-12T09:42:08.450Z,3.60
2018-01-12T09:43:10.451Z,3.60
2018-01-12T09:44:11.689Z,3.60
2018-01-12T09:45:12.973Z,3.70
2018-01-12T09:46:14.958Z,3.80
2018-01-12T09:47:21.184Z,3.70
2018-01-12T09:48:26.097Z,3.70
2018-01-12T09:49:28.108Z,3.70
2018-01-12T09:50:29.393Z,3.70
2018-01-12T09:51:31.383Z,3.60
2018-01-12T09:52:32.626Z,3.50
2018-01-12T09:53:33.963Z,3.50
2018-01-12T09:54:35.210Z,3.60
2018-01-12T09:55:37.209Z,3.60
2018-01-12T09:56:39.218Z,3.50
2018-01-12T09:57:40.456Z,3.60
2018-01-12T09:58:44.579Z,3.50
2018-01-12T09:59:45.824Z,3.60
2018-01-12T10:01:05.093Z,3.50
2018-01-12T10:02:07.085Z,3.60
2018-01-12T10:03:08.330Z,3.60
2018-01-12T10:04:09.576Z,3.70
2018-01-12T10:05:10.850Z,3.60
2018-01-12T10:06:12.857Z,3.70
2018-01-12T10:07:19.747Z,3.70
2018-01-12T10:08:24.975Z,3.80
2018-01-12T10:09:29.222Z,3.90
2018-01-12T10:10:30.484Z,4.00
2018-01-12T10:11:32.076Z,4.00
2018-01-12T10:12:34.097Z,4.10
2018-01-12T10:13:35.364Z,4.00
2018-01-12T10:14:37.337Z,4.10
2018-01-12T10:15:38.611Z,4.10
2018-01-12T10:16:39.873Z,4.10
2018-01-12T10:17:41.157Z,4.10
2018-01-12T10:18:42.441Z,4.10
2018-01-12T10:20:18.361Z,4.10
2018-01-12T10:21:31.854Z,4.20
2018-01-12T10:22:33.119Z,4.20
2018-01-12T10:23:34.392Z,4.20
2018-01-12T10:24:35.688Z,4.20
2018-01-12T10:25:37.008Z,4.20
2018-01-12T10:26:38.268Z,4.10
2018-01-12T10:27:39.802Z,4.00
2018-01-12T10:28:53.288Z,4.00
2018-01-12T10:29:57.282Z,3.90
2018-01-12T10:30:59.293Z,3.90
2018-01-12T10:32:06.450Z,3.90
2018-01-12T10:33:07.734Z,3.90
2018-01-12T10:34:09.022Z,4.00
2018-01-12T10:35:18.055Z,4.00
2018-01-12T10:36:20.137Z,4.00
2018-01-12T10:37:21.387Z,4.10
2018-01-12T10:38:23.376Z,4.10
2018-01-12T10:39:24.688Z,4.10
2018-01-12T10:42:09.672Z,4.20
2018-01-12T10:43:10.923Z,4.10
2018-01-12T10:44:12.475Z,4.20
2018-01-12T10:45:13.712Z,4.30
2018-01-12T10:46:24.936Z,4.20
2018-01-12T10:47:26.249Z,4.20
2018-01-12T10:48:37.610Z,4.30
2018-01-12T10:49:40.700Z,4.50
2018-01-12T10:50:57.850Z,4.50
2018-01-12T10:52:05.955Z,4.60
2018-01-12T10:53:07.210Z,4.60
2018-01-12T10:54:08.447Z,4.60
2018-01-12T10:55:09.714Z,4.60
2018-01-12T10:56:11.695Z,4.60
2018-01-12T10:57:12.958Z,4.50
2018-01-12T10:58:14.196Z,4.60
2018-01-12T10:59:15.475Z,4.60
2018-01-12T11:00:32.396Z,4.70
2018-01-12T11:01:33.635Z,4.70
2018-01-12T11:02:34.886Z,4.60
2018-01-12T11:03:36.177Z,4.70
2018-01-12T11:04:37.451Z,4.70
2018-01-12T11:05:38.967Z,4.80
2018-01-12T11:06:40.947Z,5.00
2018-01-12T11:07:42.199Z,5.00
2018-01-12T11:08:43.468Z,5.10
2018-01-12T11:09:44.727Z,5.10
2018-01-12T11:10:46.723Z,5.30
2018-01-12T11:11:54.851Z,5.30
2018-01-12T11:12:56.134Z,5.30
2018-01-12T11:13:57.411Z,5.40
2018-01-12T11:14:58.648Z,5.40
2018-01-12T11:15:59.912Z,5.50
2018-01-12T11:17:08.721Z,5.50
2018-01-12T11:18:10.703Z,5.40
2018-01-12T11:19:11.963Z,5.40
2018-01-12T11:20:13.218Z,5.40
2018-01-12T11:21:14.484Z,5.40
2018-01-12T11:22:16.467Z,5.50
2018-01-12T11:23:17.700Z,5.50
2018-01-12T11:24:18.941Z,5.60
2018-01-12T11:25:20.187Z,5.60
2018-01-12T11:26:21.458Z,5.60
2018-01-12T11:27:22.692Z,5.70
2018-01-12T11:28:23.939Z,5.60
2018-01-12T11:29:25.174Z,5.60
2018-01-12T11:30:26.396Z,5.50
2018-01-12T11:31:27.886Z,5.50
2018-01-12T11:32:29.124Z,5.50
2018-01-12T11:33:30.351Z,5.50
2018-01-12T11:34:31.613Z,5.50
2018-01-12T11:35:32.894Z,5.50
2018-01-12T11:36:35.184Z,5.40
2018-01-12T11:37:36.425Z,5.50
2018-01-12T11:38:37.672Z,5.50
2018-01-12T11:39:38.915Z,5.50
2018-01-12T11:40:40.157Z,5.50
2018-01-12T11:41:41.684Z,5.50
2018-01-12T11:42:42.939Z,5.50
2018-01-12T11:43:44.172Z,5.40
2018-01-12T11:44:45.416Z,5.40
2018-01-12T11:45:46.672Z,5.30
2018-01-12T11:46:48.212Z,5.40
2018-01-12T11:47:50.958Z,5.30
2018-01-12T11:48:52.215Z,5.30
2018-01-12T11:49:53.480Z,5.30
2018-01-12T11:50:54.709Z,5.20
2018-01-12T11:51:56.717Z,5.10
2018-01-12T11:52:58.696Z,5.10
2018-01-12T11:53:59.940Z,5.10
2018-01-12T11:55:01.924Z,5.00
2018-01-12T11:56:03.218Z,5.00
2018-01-12T11:57:04.552Z,5.00
2018-01-12T11:58:05.800Z,5.00
2018-01-12T11:59:07.797Z,4.90
2018-01-12T12:00:09.074Z,4.90
2018-01-12T12:01:10.310Z,4.90
2018-01-12T12:02:11.584Z,4.90
2018-01-12T12:03:12.828Z,4.90
2018-01-12T12:04:14.081Z,4.90
2018-01-12T12:05:15.334Z,4.90
2018-01-12T12:06:16.616Z,4.90
2018-01-12T12:07:18.621Z,5.00
2018-01-12T12:08:19.852Z,5.00
2018-01-12T12:09:21.088Z,5.00
2018-01-12T12:10:22.344Z,5.10
2018-01-12T12:11:23.584Z,5.20
2018-01-12T12:12:25.244Z,5.30
2018-01-12T12:13:27.238Z,5.30
2018-01-12T12:14:28.490Z,5.40
2018-01-12T12:15:29.739Z,5.40
2018-01-12T12:16:30.987Z,5.40
2018-01-12T12:17:32.240Z,5.40
2018-01-12T12:18:34.221Z,5.30
2018-01-12T12:19:35.466Z,5.30
2018-01-12T12:20:36.825Z,5.30
2018-01-12T12:21:38.077Z,5.30
2018-01-12T12:22:39.630Z,5.30
2018-01-12T12:23:40.880Z,5.40
2018-01-12T12:24:42.855Z,5.30
2018-01-12T12:25:44.108Z,5.30
2018-01-12T12:26:45.357Z,5.30
2018-01-12T12:27:46.624Z,5.30
2018-01-12T12:28:47.918Z,5.20
2018-01-12T12:29:49.140Z,5.20
2018-01-12T12:30:50.381Z,5.10
2018-01-12T12:31:51.658Z,5.10
2018-01-12T12:32:52.920Z,5.00
2018-01-12T12:33:54.201Z,5.00
2018-01-12T12:34:55.447Z,5.10
2018-01-12T12:35:56.703Z,5.10
2018-01-12T12:36:57.942Z,5.00
2018-01-12T12:37:59.483Z,5.00
2018-01-12T12:39:00.732Z,5.00
2018-01-12T12:40:02.783Z,4.90
2018-01-12T12:41:04.771Z,4.90
2018-01-12T12:42:06.022Z,4.90
2018-01-12T12:43:07.596Z,4.90
2018-01-12T12:44:08.843Z,4.90
2018-01-12T12:45:10.836Z,4.90
2018-01-12T12:46:12.107Z,4.90
2018-01-12T12:47:13.353Z,4.90
2018-01-12T12:48:14.900Z,5.00
2018-01-12T12:49:16.135Z,5.00
2018-01-12T12:50:17.374Z,5.00
2018-01-12T12:51:18.643Z,5.00
2018-01-12T12:52:20.644Z,5.10
2018-01-12T12:53:21.932Z,5.10
2018-01-12T12:54:23.179Z,5.10
2018-01-12T12:55:24.407Z,5.10
2018-01-12T12:56:25.669Z,5.20
2018-01-12T12:57:26.908Z,5.20
2018-01-12T12:58:28.453Z,5.20
2018-01-12T12:59:29.696Z,5.20
2018-01-12T13:00:30.963Z,5.20
2018-01-12T13:01:32.967Z,5.30
2018-01-12T13:02:34.975Z,5.40
2018-01-12T13:03:37.272Z,5.40
2018-01-12T13:04:38.516Z,5.40
2018-01-12T13:05:39.757Z,5.30
2018-01-12T13:06:41.034Z,5.30
2018-01-12T13:07:43.036Z,5.40
2018-01-12T13:08:44.341Z,5.40
2018-01-12T13:09:45.584Z,5.40
2018-01-12T13:10:46.839Z,5.40
2018-01-12T13:11:48.082Z,5.40
2018-01-12T13:12:49.346Z,5.40
2018-01-12T13:13:50.611Z,5.40
2018-01-12T13:14:52.596Z,5.40
2018-01-12T13:15:53.864Z,5.40
2018-01-12T13:16:55.112Z,5.40
2018-01-12T13:17:56.381Z,5.40
2018-01-12T13:18:57.660Z,5.40
2018-01-12T13:19:58.888Z,5.40
2018-01-12T13:21:00.183Z,5.50
2018-01-12T13:22:01.436Z,5.50
2018-01-12T13:23:02.716Z,5.50
2018-01-12T13:24:04.268Z,5.50
2018-01-12T13:25:05.510Z,5.50
2018-01-12T13:26:07.481Z,5.50
2018-01-12T13:27:08.724Z,5.50
2018-01-12T13:28:09.985Z,5.50
2018-01-12T13:29:11.248Z,5.50
2018-01-12T13:30:12.479Z,5.50
2018-01-12T13:31:13.742Z,5.50
2018-01-12T13:32:15.722Z,5.50
2018-01-12T13:33:17.024Z,5.50
2018-01-12T13:34:18.264Z,5.50
2018-01-12T13:35:20.252Z,5.50
2018-01-12T13:36:21.539Z,5.60
2018-01-12T13:37:22.776Z,5.60
2018-01-12T13:38:24.055Z,5.60
2018-01-12T13:39:25.576Z,5.70
2018-01-12T13:40:27.589Z,5.70
2018-01-12T13:41:28.844Z,5.70
2018-01-12T13:42:30.088Z,5.80
2018-01-12T13:43:32.120Z,5.80
2018-01-12T13:44:33.671Z,5.80
2018-01-12T13:45:34.912Z,5.90
2018-01-12T13:46:36.152Z,5.90
2018-01-12T13:47:38.152Z,6.00